sensor_id;sensor_type;location;lat;lon;timestamp;P1;durP1;ratioP1;P2;durP2;ratioP2
80315;SDS011;71201;47.064;15.448;2024-03-02T00:18:01;55.70;;;25.38;;
80315;SDS011;71201;47.064;15.448;2024-03-02T00:34:53;61.45;;;25.95;;
80315;SDS011;71201;47.064;15.448;2024-03-02T00:50:22;58.05;;;25.00;;
80315;SDS011;71201;47.064;15.448;2024-03-02T01:08:00;53.80;;;24.60;;
80315;SDS011;71201;47.064;15.448;2024-03-02T01:25:58;45.33;;;24.02;;
80315;SDS011;71201;47.064;15.448;2024-03-02T01:40:55;45.53;;;21.17;;
80315;SDS011;71201;47.064;15.448;2024-03-02T01:48:31;42.78;;;17.88;;
80315;SDS011;71201;47.064;15.448;2024-03-02T01:56:08;39.72;;;18.25;;
80315;SDS011;71201;47.064;15.448;2024-03-02T02:03:25;45.65;;;22.75;;
80315;SDS011;71201;47.064;15.448;2024-03-02T02:11:19;38.55;;;20.75;;
80315;SDS011;71201;47.064;15.448;2024-03-02T02:16:14;45.10;;;19.95;;
80315;SDS011;71201;47.064;15.448;2024-03-02T02:18:43;41.30;;;19.02;;
80315;SDS011;71201;47.064;15.448;2024-03-02T02:23:34;42.72;;;19.90;;
80315;SDS011;71201;47.064;15.448;2024-03-02T02:33:16;41.85;;;19.85;;
80315;SDS011;71201;47.064;15.448;2024-03-02T02:38:44;46.20;;;20.02;;
80315;SDS011;71201;47.064;15.448;2024-03-02T02:41:11;43.15;;;19.85;;
80315;SDS011;71201;47.064;15.448;2024-03-02T02:43:37;38.67;;;18.83;;
80315;SDS011;71201;47.064;15.448;2024-03-02T02:50:52;42.67;;;18.67;;
80315;SDS011;71201;47.064;15.448;2024-03-02T03:05:26;38.50;;;18.98;;
80315;SDS011;71201;47.064;15.448;2024-03-02T03:12:44;43.28;;;20.10;;
80315;SDS011;71201;47.064;15.448;2024-03-02T03:22:24;39.67;;;18.75;;
80315;SDS011;71201;47.064;15.448;2024-03-02T03:32:07;40.17;;;19.92;;
80315;SDS011;71201;47.064;15.448;2024-03-02T03:34:32;39.13;;;19.48;;
80315;SDS011;71201;47.064;15.448;2024-03-02T03:36:57;36.78;;;18.67;;
80315;SDS011;71201;47.064;15.448;2024-03-02T03:46:18;45.17;;;19.98;;
80315;SDS011;71201;47.064;15.448;2024-03-02T03:51:12;47.30;;;22.90;;
80315;SDS011;71201;47.064;15.448;2024-03-02T03:53:38;43.72;;;21.08;;
80315;SDS011;71201;47.064;15.448;2024-03-02T04:03:21;44.28;;;22.17;;
80315;SDS011;71201;47.064;15.448;2024-03-02T04:10:40;44.20;;;20.45;;
80315;SDS011;71201;47.064;15.448;2024-03-02T04:13:07;42.85;;;20.95;;
80315;SDS011;71201;47.064;15.448;2024-03-02T04:15:32;42.28;;;19.85;;
80315;SDS011;71201;47.064;15.448;2024-03-02T04:17:57;43.43;;;20.70;;
80315;SDS011;71201;47.064;15.448;2024-03-02T04:20:23;38.50;;;20.70;;
80315;SDS011;71201;47.064;15.448;2024-03-02T04:22:48;38.67;;;20.57;;
80315;SDS011;71201;47.064;15.448;2024-03-02T04:25:13;39.72;;;20.17;;
80315;SDS011;71201;47.064;15.448;2024-03-02T04:27:39;42.03;;;18.33;;
80315;SDS011;71201;47.064;15.448;2024-03-02T04:30:04;40.65;;;20.08;;
80315;SDS011;71201;47.064;15.448;2024-03-02T04:32:30;38.67;;;19.98;;
80315;SDS011;71201;47.064;15.448;2024-03-02T04:34:56;37.60;;;19.10;;
80315;SDS011;71201;47.064;15.448;2024-03-02T04:37:21;33.00;;;18.73;;
80315;SDS011;71201;47.064;15.448;2024-03-02T04:39:47;39.03;;;19.17;;
80315;SDS011;71201;47.064;15.448;2024-03-02T04:42:12;36.73;;;18.90;;
80315;SDS011;71201;47.064;15.448;2024-03-02T04:44:37;40.78;;;19.45;;
80315;SDS011;71201;47.064;15.448;2024-03-02T04:47:03;34.22;;;17.55;;
80315;SDS011;71201;47.064;15.448;2024-03-02T04:49:28;35.55;;;17.27;;
80315;SDS011;71201;47.064;15.448;2024-03-02T04:51:55;33.78;;;16.50;;
80315;SDS011;71201;47.064;15.448;2024-03-02T04:54:20;35.80;;;17.80;;
80315;SDS011;71201;47.064;15.448;2024-03-02T04:56:45;31.57;;;17.53;;
80315;SDS011;71201;47.064;15.448;2024-03-02T04:59:14;37.00;;;17.90;;
80315;SDS011;71201;47.064;15.448;2024-03-02T05:01:39;31.65;;;17.23;;
80315;SDS011;71201;47.064;15.448;2024-03-02T05:04:05;35.92;;;17.65;;
80315;SDS011;71201;47.064;15.448;2024-03-02T05:06:30;33.17;;;17.23;;
80315;SDS011;71201;47.064;15.448;2024-03-02T05:08:55;34.78;;;17.23;;
80315;SDS011;71201;47.064;15.448;2024-03-02T05:11:21;35.50;;;18.25;;
80315;SDS011;71201;47.064;15.448;2024-03-02T05:14:02;34.95;;;16.65;;
80315;SDS011;71201;47.064;15.448;2024-03-02T05:16:27;33.72;;;16.25;;
80315;SDS011;71201;47.064;15.448;2024-03-02T05:18:52;32.87;;;17.87;;
80315;SDS011;71201;47.064;15.448;2024-03-02T05:21:18;34.97;;;16.23;;
80315;SDS011;71201;47.064;15.448;2024-03-02T05:23:43;32.67;;;16.80;;
80315;SDS011;71201;47.064;15.448;2024-03-02T05:26:09;38.03;;;17.95;;
80315;SDS011;71201;47.064;15.448;2024-03-02T05:28:36;32.63;;;17.27;;
80315;SDS011;71201;47.064;15.448;2024-03-02T05:31:01;34.47;;;16.52;;
80315;SDS011;71201;47.064;15.448;2024-03-02T05:33:26;33.00;;;16.42;;
80315;SDS011;71201;47.064;15.448;2024-03-02T05:35:52;30.98;;;15.23;;
80315;SDS011;71201;47.064;15.448;2024-03-02T05:38:17;29.77;;;15.00;;
80315;SDS011;71201;47.064;15.448;2024-03-02T05:40:42;35.97;;;17.73;;
80315;SDS011;71201;47.064;15.448;2024-03-02T05:43:08;32.22;;;16.40;;
80315;SDS011;71201;47.064;15.448;2024-03-02T05:45:33;37.60;;;16.90;;
80315;SDS011;71201;47.064;15.448;2024-03-02T05:47:58;32.90;;;18.90;;
80315;SDS011;71201;47.064;15.448;2024-03-02T05:50:23;32.33;;;16.13;;
80315;SDS011;71201;47.064;15.448;2024-03-02T05:52:49;33.03;;;16.20;;
80315;SDS011;71201;47.064;15.448;2024-03-02T05:55:14;30.60;;;15.47;;
80315;SDS011;71201;47.064;15.448;2024-03-02T05:57:40;31.33;;;16.73;;
80315;SDS011;71201;47.064;15.448;2024-03-02T06:00:23;32.00;;;15.73;;
80315;SDS011;71201;47.064;15.448;2024-03-02T06:02:48;31.23;;;16.13;;
80315;SDS011;71201;47.064;15.448;2024-03-02T06:05:14;31.52;;;15.00;;
80315;SDS011;71201;47.064;15.448;2024-03-02T06:07:40;33.47;;;15.50;;
80315;SDS011;71201;47.064;15.448;2024-03-02T06:10:05;31.75;;;16.30;;
80315;SDS011;71201;47.064;15.448;2024-03-02T06:12:32;33.40;;;15.85;;
80315;SDS011;71201;47.064;15.448;2024-03-02T06:14:57;28.10;;;14.98;;
80315;SDS011;71201;47.064;15.448;2024-03-02T06:17:23;30.92;;;15.55;;
80315;SDS011;71201;47.064;15.448;2024-03-02T06:19:48;32.28;;;15.68;;
80315;SDS011;71201;47.064;15.448;2024-03-02T06:22:13;30.03;;;15.10;;
80315;SDS011;71201;47.064;15.448;2024-03-02T06:24:39;34.13;;;16.80;;
80315;SDS011;71201;47.064;15.448;2024-03-02T06:27:05;29.77;;;15.45;;
80315;SDS011;71201;47.064;15.448;2024-03-02T06:29:32;29.23;;;14.75;;
80315;SDS011;71201;47.064;15.448;2024-03-02T06:31:57;30.38;;;15.73;;
80315;SDS011;71201;47.064;15.448;2024-03-02T06:34:22;29.37;;;15.23;;
80315;SDS011;71201;47.064;15.448;2024-03-02T06:36:48;36.58;;;16.08;;
80315;SDS011;71201;47.064;15.448;2024-03-02T06:39:13;32.53;;;15.70;;
80315;SDS011;71201;47.064;15.448;2024-03-02T06:41:38;30.55;;;15.63;;
80315;SDS011;71201;47.064;15.448;2024-03-02T06:44:04;33.50;;;15.30;;
80315;SDS011;71201;47.064;15.448;2024-03-02T06:46:30;30.50;;;15.13;;
80315;SDS011;71201;47.064;15.448;2024-03-02T06:48:55;33.75;;;17.52;;
80315;SDS011;71201;47.064;15.448;2024-03-02T06:51:21;28.23;;;14.93;;
80315;SDS011;71201;47.064;15.448;2024-03-02T06:53:46;30.15;;;15.00;;
80315;SDS011;71201;47.064;15.448;2024-03-02T06:56:11;31.50;;;16.30;;
80315;SDS011;71201;47.064;15.448;2024-03-02T06:58:37;32.30;;;15.57;;
80315;SDS011;71201;47.064;15.448;2024-03-02T07:01:02;34.40;;;16.02;;
80315;SDS011;71201;47.064;15.448;2024-03-02T07:03:27;31.45;;;16.67;;
80315;SDS011;71201;47.064;15.448;2024-03-02T07:05:53;34.50;;;15.48;;
80315;SDS011;71201;47.064;15.448;2024-03-02T07:08:18;32.17;;;16.63;;
80315;SDS011;71201;47.064;15.448;2024-03-02T07:10:44;32.57;;;16.37;;
80315;SDS011;71201;47.064;15.448;2024-03-02T07:13:09;31.70;;;14.57;;
80315;SDS011;71201;47.064;15.448;2024-03-02T07:15:34;32.80;;;15.57;;
80315;SDS011;71201;47.064;15.448;2024-03-02T07:18:03;29.17;;;15.02;;
80315;SDS011;71201;47.064;15.448;2024-03-02T07:20:29;28.98;;;16.33;;
80315;SDS011;71201;47.064;15.448;2024-03-02T07:22:54;29.55;;;15.15;;
80315;SDS011;71201;47.064;15.448;2024-03-02T07:29:30;30.85;;;15.65;;
80315;SDS011;71201;47.064;15.448;2024-03-02T07:44:47;24.90;;;13.50;;
80315;SDS011;71201;47.064;15.448;2024-03-02T07:59:37;24.55;;;13.90;;
80315;SDS011;71201;47.064;15.448;2024-03-02T08:17:41;29.05;;;15.25;;
80315;SDS011;71201;47.064;15.448;2024-03-02T08:35:55;26.35;;;14.43;;
80315;SDS011;71201;47.064;15.448;2024-03-02T08:40:55;29.88;;;14.63;;
80315;SDS011;71201;47.064;15.448;2024-03-02T09:03:49;24.05;;;13.70;;
80315;SDS011;71201;47.064;15.448;2024-03-02T09:14:11;27.33;;;13.70;;
80315;SDS011;71201;47.064;15.448;2024-03-02T09:47:59;20.85;;;11.10;;
80315;SDS011;71201;47.064;15.448;2024-03-02T09:55:33;25.23;;;12.52;;
80315;SDS011;71201;47.064;15.448;2024-03-02T09:57:59;22.13;;;11.43;;
80315;SDS011;71201;47.064;15.448;2024-03-02T10:08:52;18.60;;;10.38;;
80315;SDS011;71201;47.064;15.448;2024-03-02T10:44:38;19.15;;;12.02;;
80315;SDS011;71201;47.064;15.448;2024-03-02T10:47:10;22.13;;;12.00;;
80315;SDS011;71201;47.064;15.448;2024-03-02T11:01:47;13.20;;;8.00;;
80315;SDS011;71201;47.064;15.448;2024-03-02T11:04:20;16.98;;;9.13;;
80315;SDS011;71201;47.064;15.448;2024-03-02T11:29:07;17.15;;;8.07;;
80315;SDS011;71201;47.064;15.448;2024-03-02T11:42:07;16.33;;;7.40;;
80315;SDS011;71201;47.064;15.448;2024-03-02T11:54:15;13.48;;;7.80;;
80315;SDS011;71201;47.064;15.448;2024-03-02T12:09:04;9.93;;;5.10;;
80315;SDS011;71201;47.064;15.448;2024-03-02T12:39:22;9.73;;;5.20;;
80315;SDS011;71201;47.064;15.448;2024-03-02T12:51:59;13.32;;;6.07;;
80315;SDS011;71201;47.064;15.448;2024-03-02T12:54:24;9.75;;;5.55;;
80315;SDS011;71201;47.064;15.448;2024-03-02T13:08:31;10.43;;;4.50;;
80315;SDS011;71201;47.064;15.448;2024-03-02T13:24:01;10.40;;;4.30;;
80315;SDS011;71201;47.064;15.448;2024-03-02T13:26:33;7.10;;;4.68;;
80315;SDS011;71201;47.064;15.448;2024-03-02T13:41:57;9.82;;;5.10;;
80315;SDS011;71201;47.064;15.448;2024-03-02T13:52:13;13.98;;;5.00;;
80315;SDS011;71201;47.064;15.448;2024-03-02T14:04:33;7.28;;;4.03;;
80315;SDS011;71201;47.064;15.448;2024-03-02T14:09:30;8.40;;;4.20;;
80315;SDS011;71201;47.064;15.448;2024-03-02T14:17:10;9.38;;;5.10;;
80315;SDS011;71201;47.064;15.448;2024-03-02T14:24:56;9.43;;;5.65;;
80315;SDS011;71201;47.064;15.448;2024-03-02T14:32:20;10.90;;;5.85;;
80315;SDS011;71201;47.064;15.448;2024-03-02T14:34:45;12.23;;;6.18;;
80315;SDS011;71201;47.064;15.448;2024-03-02T14:37:11;14.15;;;7.50;;
80315;SDS011;71201;47.064;15.448;2024-03-02T14:39:37;16.17;;;7.07;;
80315;SDS011;71201;47.064;15.448;2024-03-02T14:42:02;12.23;;;5.65;;
80315;SDS011;71201;47.064;15.448;2024-03-02T14:44:28;12.93;;;6.45;;
80315;SDS011;71201;47.064;15.448;2024-03-02T14:46:53;13.83;;;6.40;;
80315;SDS011;71201;47.064;15.448;2024-03-02T14:49:18;13.10;;;5.88;;
80315;SDS011;71201;47.064;15.448;2024-03-02T14:51:43;11.67;;;5.77;;
80315;SDS011;71201;47.064;15.448;2024-03-02T14:54:09;10.65;;;5.43;;
80315;SDS011;71201;47.064;15.448;2024-03-02T14:56:34;11.43;;;5.30;;
80315;SDS011;71201;47.064;15.448;2024-03-02T14:58:59;10.40;;;5.40;;
80315;SDS011;71201;47.064;15.448;2024-03-02T15:01:25;11.07;;;5.60;;
80315;SDS011;71201;47.064;15.448;2024-03-02T15:03:50;8.98;;;5.28;;
80315;SDS011;71201;47.064;15.448;2024-03-02T15:06:16;10.25;;;5.60;;
80315;SDS011;71201;47.064;15.448;2024-03-02T15:08:41;10.15;;;5.28;;
80315;SDS011;71201;47.064;15.448;2024-03-02T15:11:07;8.57;;;4.78;;
80315;SDS011;71201;47.064;15.448;2024-03-02T15:13:32;11.05;;;5.30;;
80315;SDS011;71201;47.064;15.448;2024-03-02T15:15:59;11.07;;;5.05;;
80315;SDS011;71201;47.064;15.448;2024-03-02T15:18:24;9.85;;;4.50;;
80315;SDS011;71201;47.064;15.448;2024-03-02T15:35:05;11.07;;;5.97;;
80315;SDS011;71201;47.064;15.448;2024-03-02T15:49:58;11.93;;;6.32;;
80315;SDS011;71201;47.064;15.448;2024-03-02T16:01:46;17.17;;;8.63;;
80315;SDS011;71201;47.064;15.448;2024-03-02T16:09:12;21.00;;;10.45;;
80315;SDS011;71201;47.064;15.448;2024-03-02T16:27:19;24.42;;;10.75;;
80315;SDS011;71201;47.064;15.448;2024-03-02T16:46:13;27.10;;;12.02;;
80315;SDS011;71201;47.064;15.448;2024-03-02T16:51:20;23.15;;;12.95;;
80315;SDS011;71201;47.064;15.448;2024-03-02T16:53:45;21.73;;;12.60;;
80315;SDS011;71201;47.064;15.448;2024-03-02T16:56:11;20.50;;;12.80;;
80315;SDS011;71201;47.064;15.448;2024-03-02T16:58:36;22.70;;;12.67;;
80315;SDS011;71201;47.064;15.448;2024-03-02T17:01:02;21.35;;;12.48;;
80315;SDS011;71201;47.064;15.448;2024-03-02T17:03:27;25.98;;;13.05;;
80315;SDS011;71201;47.064;15.448;2024-03-02T17:05:52;22.50;;;12.45;;
80315;SDS011;71201;47.064;15.448;2024-03-02T17:08:17;21.33;;;12.00;;
80315;SDS011;71201;47.064;15.448;2024-03-02T17:10:43;21.37;;;11.73;;
80315;SDS011;71201;47.064;15.448;2024-03-02T17:13:08;19.77;;;11.18;;
80315;SDS011;71201;47.064;15.448;2024-03-02T17:15:33;22.08;;;11.77;;
80315;SDS011;71201;47.064;15.448;2024-03-02T17:17:59;22.05;;;11.68;;
80315;SDS011;71201;47.064;15.448;2024-03-02T17:20:24;24.17;;;12.18;;
80315;SDS011;71201;47.064;15.448;2024-03-02T17:22:49;20.50;;;11.27;;
80315;SDS011;71201;47.064;15.448;2024-03-02T17:25:15;25.17;;;12.63;;
80315;SDS011;71201;47.064;15.448;2024-03-02T17:27:40;21.83;;;13.77;;
80315;SDS011;71201;47.064;15.448;2024-03-02T17:30:05;23.17;;;13.47;;
80315;SDS011;71201;47.064;15.448;2024-03-02T17:32:31;23.75;;;13.57;;
80315;SDS011;71201;47.064;15.448;2024-03-02T17:34:57;24.10;;;13.43;;
80315;SDS011;71201;47.064;15.448;2024-03-02T17:37:24;22.60;;;13.50;;
80315;SDS011;71201;47.064;15.448;2024-03-02T17:39:49;24.53;;;14.23;;
80315;SDS011;71201;47.064;15.448;2024-03-02T17:42:14;24.63;;;12.93;;
80315;SDS011;71201;47.064;15.448;2024-03-02T17:44:39;23.17;;;13.70;;
80315;SDS011;71201;47.064;15.448;2024-03-02T17:47:05;24.67;;;14.53;;
80315;SDS011;71201;47.064;15.448;2024-03-02T17:49:30;25.92;;;13.80;;
80315;SDS011;71201;47.064;15.448;2024-03-02T17:51:55;24.45;;;15.02;;
80315;SDS011;71201;47.064;15.448;2024-03-02T17:54:21;26.37;;;14.73;;
80315;SDS011;71201;47.064;15.448;2024-03-02T17:56:46;25.93;;;15.53;;
80315;SDS011;71201;47.064;15.448;2024-03-02T17:59:11;26.10;;;13.45;;
80315;SDS011;71201;47.064;15.448;2024-03-02T18:01:36;25.90;;;12.93;;
80315;SDS011;71201;47.064;15.448;2024-03-02T18:04:02;28.37;;;15.30;;
80315;SDS011;71201;47.064;15.448;2024-03-02T18:06:27;29.20;;;15.80;;
80315;SDS011;71201;47.064;15.448;2024-03-02T18:08:52;22.33;;;13.37;;
80315;SDS011;71201;47.064;15.448;2024-03-02T18:11:18;26.15;;;13.18;;
80315;SDS011;71201;47.064;15.448;2024-03-02T18:13:44;27.20;;;14.55;;
80315;SDS011;71201;47.064;15.448;2024-03-02T18:16:12;23.25;;;13.63;;
80315;SDS011;71201;47.064;15.448;2024-03-02T18:18:37;28.58;;;16.88;;
80315;SDS011;71201;47.064;15.448;2024-03-02T18:21:03;29.73;;;16.63;;
80315;SDS011;71201;47.064;15.448;2024-03-02T18:23:28;28.90;;;15.85;;
80315;SDS011;71201;47.064;15.448;2024-03-02T18:25:54;26.73;;;15.48;;
80315;SDS011;71201;47.064;15.448;2024-03-02T18:28:19;31.00;;;16.53;;
80315;SDS011;71201;47.064;15.448;2024-03-02T18:30:44;30.70;;;16.23;;
80315;SDS011;71201;47.064;15.448;2024-03-02T18:33:10;30.80;;;16.33;;
80315;SDS011;71201;47.064;15.448;2024-03-02T18:35:35;29.57;;;16.53;;
80315;SDS011;71201;47.064;15.448;2024-03-02T18:38:01;28.65;;;17.02;;
80315;SDS011;71201;47.064;15.448;2024-03-02T18:40:26;29.10;;;13.90;;
80315;SDS011;71201;47.064;15.448;2024-03-02T18:42:51;30.97;;;15.23;;
80315;SDS011;71201;47.064;15.448;2024-03-02T18:45:17;28.17;;;15.23;;
80315;SDS011;71201;47.064;15.448;2024-03-02T18:47:46;27.57;;;13.97;;
80315;SDS011;71201;47.064;15.448;2024-03-02T18:50:11;29.50;;;15.68;;
80315;SDS011;71201;47.064;15.448;2024-03-02T18:52:37;29.17;;;16.45;;
80315;SDS011;71201;47.064;15.448;2024-03-02T18:55:03;26.88;;;15.48;;
80315;SDS011;71201;47.064;15.448;2024-03-02T18:57:30;29.75;;;15.98;;
80315;SDS011;71201;47.064;15.448;2024-03-02T18:59:55;27.63;;;15.25;;
80315;SDS011;71201;47.064;15.448;2024-03-02T19:02:21;30.40;;;16.13;;
80315;SDS011;71201;47.064;15.448;2024-03-02T19:04:46;27.67;;;16.43;;
80315;SDS011;71201;47.064;15.448;2024-03-02T19:07:12;27.38;;;16.45;;
80315;SDS011;71201;47.064;15.448;2024-03-02T19:09:38;28.55;;;14.85;;
80315;SDS011;71201;47.064;15.448;2024-03-02T19:12:03;30.50;;;16.60;;
80315;SDS011;71201;47.064;15.448;2024-03-02T19:14:29;27.90;;;16.27;;
80315;SDS011;71201;47.064;15.448;2024-03-02T19:16:54;33.20;;;16.43;;
80315;SDS011;71201;47.064;15.448;2024-03-02T19:19:19;32.43;;;17.53;;
80315;SDS011;71201;47.064;15.448;2024-03-02T19:21:45;29.30;;;16.87;;
80315;SDS011;71201;47.064;15.448;2024-03-02T19:24:10;31.55;;;16.08;;
80315;SDS011;71201;47.064;15.448;2024-03-02T19:26:36;33.53;;;17.67;;
80315;SDS011;71201;47.064;15.448;2024-03-02T19:29:01;30.93;;;18.43;;
80315;SDS011;71201;47.064;15.448;2024-03-02T19:31:26;32.17;;;18.60;;
80315;SDS011;71201;47.064;15.448;2024-03-02T19:33:51;29.67;;;16.20;;
80315;SDS011;71201;47.064;15.448;2024-03-02T19:36:17;25.25;;;15.75;;
80315;SDS011;71201;47.064;15.448;2024-03-02T19:38:42;29.67;;;15.68;;
80315;SDS011;71201;47.064;15.448;2024-03-02T19:41:08;29.95;;;14.75;;
80315;SDS011;71201;47.064;15.448;2024-03-02T19:43:33;27.30;;;15.18;;
80315;SDS011;71201;47.064;15.448;2024-03-02T19:45:58;29.75;;;15.80;;
80315;SDS011;71201;47.064;15.448;2024-03-02T19:48:24;30.23;;;16.60;;
80315;SDS011;71201;47.064;15.448;2024-03-02T19:50:49;29.90;;;16.23;;
80315;SDS011;71201;47.064;15.448;2024-03-02T19:53:15;28.33;;;15.00;;
80315;SDS011;71201;47.064;15.448;2024-03-02T19:55:40;28.60;;;16.45;;
80315;SDS011;71201;47.064;15.448;2024-03-02T19:58:09;30.80;;;16.88;;
80315;SDS011;71201;47.064;15.448;2024-03-02T20:00:34;28.37;;;16.10;;
80315;SDS011;71201;47.064;15.448;2024-03-02T20:02:59;28.05;;;16.00;;
80315;SDS011;71201;47.064;15.448;2024-03-02T20:05:24;26.63;;;16.40;;
80315;SDS011;71201;47.064;15.448;2024-03-02T20:07:50;30.20;;;17.38;;
80315;SDS011;71201;47.064;15.448;2024-03-02T20:10:16;31.00;;;17.25;;
80315;SDS011;71201;47.064;15.448;2024-03-02T20:12:41;32.00;;;16.98;;
80315;SDS011;71201;47.064;15.448;2024-03-02T20:15:07;32.20;;;18.70;;
80315;SDS011;71201;47.064;15.448;2024-03-02T20:17:35;30.77;;;17.23;;
80315;SDS011;71201;47.064;15.448;2024-03-02T20:20:00;31.13;;;17.47;;
80315;SDS011;71201;47.064;15.448;2024-03-02T20:22:25;34.40;;;18.23;;
80315;SDS011;71201;47.064;15.448;2024-03-02T20:24:51;33.85;;;18.83;;
80315;SDS011;71201;47.064;15.448;2024-03-02T20:27:16;30.20;;;16.45;;
80315;SDS011;71201;47.064;15.448;2024-03-02T20:29:43;29.35;;;16.38;;
80315;SDS011;71201;47.064;15.448;2024-03-02T20:32:08;31.90;;;18.67;;
80315;SDS011;71201;47.064;15.448;2024-03-02T20:34:34;30.50;;;18.00;;
80315;SDS011;71201;47.064;15.448;2024-03-02T20:36:59;31.73;;;16.23;;
80315;SDS011;71201;47.064;15.448;2024-03-02T20:39:26;32.65;;;17.95;;
80315;SDS011;71201;47.064;15.448;2024-03-02T20:41:51;34.45;;;17.88;;
80315;SDS011;71201;47.064;15.448;2024-03-02T20:44:16;33.92;;;17.92;;
80315;SDS011;71201;47.064;15.448;2024-03-02T20:46:43;30.75;;;18.35;;
80315;SDS011;71201;47.064;15.448;2024-03-02T20:49:09;32.75;;;18.60;;
80315;SDS011;71201;47.064;15.448;2024-03-02T20:57:00;34.88;;;16.92;;
80315;SDS011;71201;47.064;15.448;2024-03-02T21:02:02;31.50;;;17.10;;
80315;SDS011;71201;47.064;15.448;2024-03-02T21:04:34;30.73;;;16.05;;
80315;SDS011;71201;47.064;15.448;2024-03-02T21:19:35;32.88;;;16.25;;
80315;SDS011;71201;47.064;15.448;2024-03-02T21:39:17;30.05;;;16.75;;
80315;SDS011;71201;47.064;15.448;2024-03-02T21:58:06;31.13;;;15.80;;
80315;SDS011;71201;47.064;15.448;2024-03-02T22:27:16;29.67;;;15.80;;
80315;SDS011;71201;47.064;15.448;2024-03-02T22:42:58;30.67;;;16.33;;
80315;SDS011;71201;47.064;15.448;2024-03-02T22:58:41;27.85;;;16.35;;
80315;SDS011;71201;47.064;15.448;2024-03-02T23:19:42;28.10;;;13.77;;
80315;SDS011;71201;47.064;15.448;2024-03-02T23:22:07;26.40;;;13.95;;
80315;SDS011;71201;47.064;15.448;2024-03-02T23:28:54;26.10;;;14.02;;
80315;SDS011;71201;47.064;15.448;2024-03-02T23:31:20;24.88;;;12.70;;
80315;SDS011;71201;47.064;15.448;2024-03-02T23:33:46;30.30;;;14.83;;
80315;SDS011;71201;47.064;15.448;2024-03-02T23:36:12;21.63;;;11.55;;
80315;SDS011;71201;47.064;15.448;2024-03-02T23:49:46;31.83;;;14.05;;
80315;SDS011;71201;47.064;15.448;2024-03-02T23:58:05;28.95;;;14.93;;
